createdAt,value
2023-05-15T00:00:02.817Z,3.10
2023-05-15T00:01:02.775Z,5.20
2023-05-15T00:02:02.844Z,3.20
2023-05-15T00:03:02.804Z,3.90
2023-05-15T00:04:02.845Z,4.50
2023-05-15T00:05:02.779Z,5.00
2023-05-15T00:06:02.751Z,4.20
2023-05-15T00:07:02.696Z,5.10
2023-05-15T00:08:02.684Z,3.70
2023-05-15T00:09:02.683Z,5.30
2023-05-15T00:10:02.669Z,4.00
2023-05-15T00:11:02.662Z,5.00
2023-05-15T00:12:02.648Z,3.50
2023-05-15T00:13:02.620Z,6.30
2023-05-15T00:14:02.648Z,6.20
2023-05-15T00:15:02.615Z,5.50
2023-05-15T00:16:02.750Z,5.60
2023-05-15T00:17:02.612Z,3.60
2023-05-15T00:18:02.705Z,5.30
2023-05-15T00:19:02.644Z,4.50
2023-05-15T00:20:02.770Z,5.00
2023-05-15T00:21:02.548Z,5.10
2023-05-15T00:22:02.568Z,4.10
2023-05-15T00:23:02.569Z,4.30
2023-05-15T00:24:02.783Z,4.30
2023-05-15T00:25:02.509Z,4.30
2023-05-15T00:26:02.612Z,5.50
2023-05-15T00:27:02.472Z,4.30
2023-05-15T00:28:02.499Z,6.10
2023-05-15T00:29:02.454Z,4.00
2023-05-15T00:30:02.493Z,6.40
2023-05-15T00:31:02.554Z,5.60
2023-05-15T00:32:02.442Z,7.50
2023-05-15T00:33:02.452Z,7.90
2023-05-15T00:34:02.437Z,6.50
2023-05-15T00:35:02.412Z,6.70
2023-05-15T00:36:02.477Z,9.40
2023-05-15T00:37:02.393Z,7.70
2023-05-15T00:38:03.413Z,9.60
2023-05-15T00:39:02.420Z,9.50
2023-05-15T00:40:02.397Z,8.70
2023-05-15T00:41:02.339Z,12.50
2023-05-15T00:42:02.432Z,14.30
2023-05-15T00:43:02.310Z,9.90
2023-05-15T00:44:02.392Z,12.70
2023-05-15T00:45:02.299Z,11.40
2023-05-15T00:46:02.369Z,12.60
2023-05-15T00:47:02.317Z,12.40
2023-05-15T00:48:02.331Z,15.00
2023-05-15T00:49:02.250Z,16.30
2023-05-15T00:50:02.287Z,14.20
2023-05-15T00:51:02.219Z,15.20
2023-05-15T00:52:02.236Z,15.40
2023-05-15T00:53:02.212Z,14.20
2023-05-15T00:54:02.298Z,16.30
2023-05-15T00:55:02.178Z,16.90
2023-05-15T00:56:02.294Z,17.60
2023-05-15T00:57:02.158Z,14.70
2023-05-15T00:58:02.225Z,18.20
2023-05-15T00:59:02.150Z,19.10
2023-05-15T01:00:02.121Z,18.60
2023-05-15T01:01:02.131Z,17.10
2023-05-15T01:02:02.121Z,17.60
2023-05-15T01:03:02.250Z,16.30
2023-05-15T01:04:02.154Z,18.70
2023-05-15T01:05:02.083Z,17.80
2023-05-15T01:06:02.076Z,16.30
2023-05-15T01:07:02.037Z,22.60
2023-05-15T01:08:02.052Z,18.40
2023-05-15T01:09:02.025Z,17.60
2023-05-15T01:10:02.014Z,19.60
2023-05-15T01:11:02.005Z,16.20
2023-05-15T01:12:01.995Z,23.20
2023-05-15T01:13:01.970Z,21.00
2023-05-15T01:14:01.968Z,19.80
2023-05-15T01:15:01.958Z,18.50
2023-05-15T01:16:01.968Z,17.90
2023-05-15T01:17:01.940Z,21.60
2023-05-15T01:18:01.988Z,17.30
2023-05-15T01:19:02.014Z,18.40
2023-05-15T01:20:01.950Z,18.00
2023-05-15T01:21:01.900Z,14.70
2023-05-15T01:22:01.926Z,17.70
2023-05-15T01:23:01.859Z,18.90
2023-05-15T01:24:01.897Z,15.40
2023-05-15T01:25:01.844Z,18.10
2023-05-15T01:26:01.826Z,16.50
2023-05-15T01:27:01.872Z,18.20
2023-05-15T01:28:01.825Z,19.10
2023-05-15T01:29:01.805Z,16.80
2023-05-15T01:30:01.832Z,19.90
2023-05-15T01:31:01.795Z,17.30
2023-05-15T01:32:01.869Z,18.00
2023-05-15T01:33:01.838Z,19.60
2023-05-15T01:34:01.801Z,22.90
2023-05-15T01:35:01.727Z,18.90
2023-05-15T01:36:01.758Z,17.30
2023-05-15T01:37:01.721Z,16.40
2023-05-15T01:38:01.737Z,18.80
2023-05-15T01:39:01.673Z,17.50
2023-05-15T01:40:01.677Z,19.90
2023-05-15T01:41:01.672Z,17.90
2023-05-15T01:42:01.667Z,22.20
2023-05-15T01:43:01.635Z,22.10
2023-05-15T01:44:01.673Z,21.60
2023-05-15T01:45:01.643Z,22.40
2023-05-15T01:46:01.697Z,21.20
2023-05-15T01:47:01.611Z,20.50
2023-05-15T01:48:01.681Z,21.60
2023-05-15T01:49:01.586Z,22.20
2023-05-15T01:50:01.610Z,25.90
2023-05-15T01:51:01.551Z,25.30
2023-05-15T01:52:01.566Z,20.50
2023-05-15T01:53:01.522Z,24.70
2023-05-15T01:54:01.525Z,22.70
2023-05-15T01:55:01.514Z,27.60
2023-05-15T01:56:01.561Z,19.60
2023-05-15T01:57:01.491Z,22.50
2023-05-15T01:58:01.474Z,21.30
2023-05-15T01:59:01.470Z,20.70
2023-05-15T02:00:01.464Z,22.60
2023-05-15T02:01:01.445Z,24.70
2023-05-15T02:02:01.528Z,27.20
2023-05-15T02:03:01.466Z,27.90
2023-05-15T02:04:01.562Z,27.60
2023-05-15T02:05:01.411Z,22.80
2023-05-15T02:06:01.384Z,27.90
2023-05-15T02:07:01.364Z,26.50
2023-05-15T02:08:01.371Z,28.30
2023-05-15T02:09:01.365Z,27.20
2023-05-15T02:10:01.361Z,27.00
2023-05-15T02:11:01.444Z,25.10
2023-05-15T02:12:01.346Z,25.50
2023-05-15T02:13:01.334Z,30.70
2023-05-15T02:14:01.308Z,28.70
2023-05-15T02:15:01.305Z,28.50
2023-05-15T02:16:01.308Z,29.20
2023-05-15T02:17:01.269Z,30.40
2023-05-15T02:18:01.286Z,27.40
2023-05-15T02:19:01.305Z,28.40
2023-05-15T02:20:01.228Z,27.30
2023-05-15T02:21:01.235Z,30.60
2023-05-15T02:22:01.218Z,29.40
2023-05-15T02:23:01.205Z,30.90
2023-05-15T02:24:01.199Z,31.50
2023-05-15T02:25:01.179Z,35.60
2023-05-15T02:26:01.166Z,35.80
2023-05-15T02:27:01.148Z,38.00
2023-05-15T02:28:01.156Z,33.40
2023-05-15T02:29:01.144Z,34.70
2023-05-15T02:30:01.121Z,38.90
2023-05-15T02:31:01.097Z,36.90
2023-05-15T02:32:01.159Z,38.70
2023-05-15T02:33:01.156Z,32.50
2023-05-15T02:34:01.090Z,38.10
2023-05-15T02:35:01.085Z,40.00
2023-05-15T02:36:01.052Z,43.00
2023-05-15T02:37:01.049Z,40.60
2023-05-15T02:38:01.048Z,43.00
2023-05-15T02:39:01.034Z,42.10
2023-05-15T02:40:01.014Z,44.70
2023-05-15T02:41:01.011Z,45.10
2023-05-15T02:42:02.775Z,42.30
2023-05-15T02:43:01.004Z,44.90
2023-05-15T02:44:00.980Z,46.80
2023-05-15T02:45:00.954Z,53.30
2023-05-15T02:46:00.980Z,52.40
2023-05-15T02:47:00.932Z,50.40
2023-05-15T02:48:01.007Z,51.80
2023-05-15T02:49:00.907Z,51.40
2023-05-15T02:50:00.921Z,53.00
2023-05-15T02:51:00.890Z,57.50
2023-05-15T02:52:00.888Z,52.00
2023-05-15T02:53:00.884Z,56.50
2023-05-15T02:54:00.877Z,57.20
2023-05-15T02:55:00.843Z,59.50
2023-05-15T02:56:00.859Z,61.40
2023-05-15T02:57:00.815Z,56.30
2023-05-15T02:58:00.818Z,63.90
2023-05-15T02:59:00.801Z,64.60
2023-05-15T03:00:00.808Z,66.40
2023-05-15T03:01:00.863Z,59.60
2023-05-15T03:02:00.783Z,67.20
2023-05-15T03:03:00.804Z,65.00
2023-05-15T03:04:00.783Z,70.40
2023-05-15T03:05:00.765Z,65.10
2023-05-15T03:06:00.768Z,69.30
2023-05-15T03:07:00.711Z,67.30
2023-05-15T03:08:00.704Z,70.00
2023-05-15T03:09:00.693Z,72.70
2023-05-15T03:10:00.719Z,71.70
2023-05-15T03:11:00.680Z,78.60
2023-05-15T03:12:00.664Z,71.30
2023-05-15T03:13:00.647Z,79.30
2023-05-15T03:14:00.676Z,77.00
2023-05-15T03:15:00.641Z,80.20
2023-05-15T03:16:00.618Z,79.90
2023-05-15T03:17:00.623Z,75.90
2023-05-15T03:18:00.654Z,81.70
2023-05-15T03:19:00.633Z,79.60
2023-05-15T03:20:00.581Z,84.00
2023-05-15T03:21:00.556Z,85.30
2023-05-15T03:22:00.553Z,80.40
2023-05-15T03:23:00.538Z,78.70
2023-05-15T03:24:00.581Z,77.70
2023-05-15T03:25:00.509Z,77.30
2023-05-15T03:26:00.529Z,77.10
2023-05-15T03:27:00.498Z,78.70
2023-05-15T03:28:00.505Z,89.60
2023-05-15T03:29:00.579Z,83.30
2023-05-15T03:30:00.475Z,81.50
2023-05-15T03:31:00.480Z,81.10
2023-05-15T03:32:00.511Z,85.10
2023-05-15T03:33:00.478Z,82.40
2023-05-15T03:34:00.412Z,82.80
2023-05-15T03:35:00.398Z,76.50
2023-05-15T03:36:00.391Z,80.00
2023-05-15T03:37:00.382Z,83.20
2023-05-15T03:38:00.381Z,78.00
2023-05-15T03:39:00.373Z,77.40
2023-05-15T03:40:00.342Z,83.40
2023-05-15T03:41:00.338Z,81.30
2023-05-15T03:42:00.415Z,83.80
2023-05-15T03:43:00.325Z,86.00
2023-05-15T03:44:00.305Z,84.00
2023-05-15T03:45:00.311Z,83.30
2023-05-15T03:46:00.290Z,81.00
2023-05-15T03:47:00.382Z,83.10
2023-05-15T03:48:00.265Z,83.00
2023-05-15T03:49:00.262Z,83.80
2023-05-15T03:50:00.297Z,79.50
2023-05-15T03:51:00.213Z,78.00
2023-05-15T03:52:00.218Z,75.50
2023-05-15T03:53:00.259Z,83.80
2023-05-15T03:54:00.188Z,77.70
2023-05-15T03:55:00.242Z,77.10
2023-05-15T03:56:00.164Z,78.30
2023-05-15T03:57:00.169Z,75.60
2023-05-15T03:58:00.133Z,78.50
2023-05-15T03:59:00.158Z,75.10
2023-05-15T04:00:00.807Z,69.40
2023-05-15T04:01:00.137Z,73.70
2023-05-15T04:02:05.111Z,71.60
2023-05-15T04:03:01.216Z,77.10
2023-05-15T04:04:00.115Z,71.20
2023-05-15T04:05:00.206Z,74.60
2023-05-15T04:06:00.109Z,69.30
2023-05-15T04:07:00.049Z,72.10
2023-05-15T04:08:00.041Z,73.60
2023-05-15T04:09:00.013Z,66.80
2023-05-15T04:10:00.021Z,67.40
2023-05-15T04:11:00.029Z,63.70
2023-05-15T04:11:59.982Z,63.80
2023-05-15T04:12:59.976Z,64.70
2023-05-15T04:13:59.967Z,60.70
2023-05-15T04:14:59.963Z,66.50
2023-05-15T04:15:59.999Z,57.50
2023-05-15T04:16:59.934Z,60.70
2023-05-15T04:17:59.982Z,59.30
2023-05-15T04:18:59.930Z,61.10
2023-05-15T04:19:59.910Z,56.80
2023-05-15T04:20:59.894Z,57.50
2023-05-15T04:21:59.887Z,54.60
2023-05-15T04:22:59.869Z,52.50
2023-05-15T04:23:59.850Z,55.70
2023-05-15T04:24:59.865Z,56.80
2023-05-15T04:25:59.843Z,55.40
2023-05-15T04:26:59.893Z,54.50
2023-05-15T04:27:59.814Z,60.40
2023-05-15T04:29:03.962Z,60.60
2023-05-15T04:29:59.809Z,59.10
2023-05-15T04:30:59.801Z,57.70
2023-05-15T04:31:59.822Z,56.30
2023-05-15T04:32:59.784Z,58.80
2023-05-15T04:33:59.812Z,57.50
2023-05-15T04:34:59.732Z,56.40
2023-05-15T04:35:59.718Z,53.00
2023-05-15T04:36:59.717Z,58.30
2023-05-15T04:37:59.721Z,54.30
2023-05-15T04:38:59.712Z,51.10
2023-05-15T04:39:59.670Z,50.20
2023-05-15T04:40:59.667Z,48.20
2023-05-15T04:41:59.674Z,49.20
2023-05-15T04:42:59.646Z,47.30
2023-05-15T04:43:59.644Z,46.00
2023-05-15T04:44:59.621Z,47.90
2023-05-15T04:46:01.547Z,43.50
2023-05-15T04:47:02.101Z,47.70
2023-05-15T04:48:00.724Z,44.40
2023-05-15T04:49:03.317Z,45.80
2023-05-15T04:49:59.984Z,49.40
2023-05-15T04:51:04.811Z,45.80
2023-05-15T04:51:59.743Z,47.00
2023-05-15T04:53:01.324Z,50.60
2023-05-15T04:53:59.551Z,54.00
2023-05-15T04:54:59.802Z,49.20
2023-05-15T04:55:59.502Z,51.40
2023-05-15T04:56:59.497Z,51.60
2023-05-15T04:57:59.489Z,48.20
2023-05-15T04:58:59.506Z,49.30
2023-05-15T04:59:59.452Z,51.00
2023-05-15T05:01:01.405Z,51.40
2023-05-15T05:01:59.492Z,56.80
2023-05-15T05:02:59.742Z,51.50
2023-05-15T05:03:59.490Z,52.70
2023-05-15T05:04:59.419Z,55.00
2023-05-15T05:05:59.385Z,54.70
2023-05-15T05:06:59.379Z,55.80
2023-05-15T05:07:59.379Z,55.60
2023-05-15T05:08:59.380Z,52.20
2023-05-15T05:09:59.345Z,56.10
2023-05-15T05:10:59.355Z,51.90
2023-05-15T05:11:59.340Z,53.50
2023-05-15T05:12:59.315Z,56.00
2023-05-15T05:13:59.314Z,55.70
2023-05-15T05:14:59.295Z,54.10
2023-05-15T05:15:59.341Z,57.00
2023-05-15T05:16:59.317Z,52.50
2023-05-15T05:17:59.321Z,52.40
2023-05-15T05:18:59.322Z,55.40
2023-05-15T05:19:59.245Z,52.20
2023-05-15T05:20:59.236Z,58.90
2023-05-15T05:21:59.227Z,59.00
2023-05-15T05:22:59.202Z,55.40
2023-05-15T05:23:59.206Z,56.10
2023-05-15T05:24:59.177Z,56.50
2023-05-15T05:25:59.186Z,57.10
2023-05-15T05:26:59.174Z,52.80
2023-05-15T05:27:59.154Z,57.30
2023-05-15T05:28:59.132Z,54.00
2023-05-15T05:29:59.133Z,54.40
2023-05-15T05:30:59.179Z,55.50
2023-05-15T05:31:59.343Z,51.90
2023-05-15T05:32:59.181Z,57.30
2023-05-15T05:33:59.085Z,58.90
2023-05-15T05:34:59.122Z,67.10
2023-05-15T05:35:59.072Z,60.00
2023-05-15T05:36:59.056Z,62.80
2023-05-15T05:37:59.041Z,57.00
2023-05-15T05:38:59.050Z,59.20
2023-05-15T05:39:59.042Z,56.00
2023-05-15T05:40:59.011Z,58.40
2023-05-15T05:41:59.006Z,56.70
2023-05-15T05:42:58.978Z,56.00
2023-05-15T05:43:58.997Z,56.60
2023-05-15T05:44:58.991Z,60.40
2023-05-15T05:45:58.955Z,58.40
2023-05-15T05:46:58.978Z,56.70
2023-05-15T05:47:59.018Z,62.70
2023-05-15T05:48:58.915Z,52.50
2023-05-15T05:49:58.913Z,54.10
2023-05-15T05:50:58.950Z,53.70
2023-05-15T05:51:58.893Z,55.20
2023-05-15T05:52:58.871Z,52.20
2023-05-15T05:53:58.885Z,49.00
2023-05-15T05:54:58.847Z,48.10
2023-05-15T05:55:58.848Z,53.70
2023-05-15T05:56:58.822Z,51.40
2023-05-15T05:57:58.827Z,52.30
2023-05-15T05:58:58.812Z,50.50
2023-05-15T05:59:58.792Z,46.80
2023-05-15T06:00:58.777Z,48.00
2023-05-15T06:01:58.845Z,47.50
2023-05-15T06:02:58.944Z,49.60
2023-05-15T06:03:58.875Z,49.90
2023-05-15T06:04:58.740Z,50.70
2023-05-15T06:05:58.730Z,47.40
2023-05-15T06:06:58.775Z,49.80
2023-05-15T06:07:58.741Z,47.00
2023-05-15T06:08:58.699Z,50.80
2023-05-15T06:09:58.685Z,49.60
2023-05-15T06:10:58.680Z,51.30
2023-05-15T06:11:58.662Z,49.60
2023-05-15T06:12:58.651Z,51.80
2023-05-15T06:13:58.644Z,50.40
2023-05-15T06:14:58.653Z,52.00
2023-05-15T06:15:58.626Z,51.70
2023-05-15T06:16:58.775Z,49.80
2023-05-15T06:17:58.646Z,50.90
2023-05-15T06:18:58.662Z,55.90
2023-05-15T06:19:58.667Z,57.20
2023-05-15T06:20:58.619Z,61.70
2023-05-15T06:21:58.593Z,57.40
2023-05-15T06:22:58.538Z,59.10
2023-05-15T06:23:58.535Z,58.80
2023-05-15T06:24:58.516Z,59.60
2023-05-15T06:25:58.512Z,63.90
2023-05-15T06:26:58.504Z,63.20
2023-05-15T06:27:58.528Z,65.30
2023-05-15T06:28:58.476Z,66.00
2023-05-15T06:29:58.495Z,64.20
2023-05-15T06:30:58.492Z,61.80
2023-05-15T06:31:58.451Z,55.50
2023-05-15T06:32:58.459Z,57.90
2023-05-15T06:33:58.419Z,49.70
2023-05-15T06:34:58.402Z,48.70
2023-05-15T06:35:58.426Z,53.20
2023-05-15T06:36:58.391Z,52.00
2023-05-15T06:37:58.620Z,53.90
2023-05-15T06:38:58.383Z,53.70
2023-05-15T06:39:58.385Z,50.70
2023-05-15T06:40:58.364Z,53.00
2023-05-15T06:42:02.214Z,50.20
2023-05-15T06:42:58.321Z,46.60
2023-05-15T06:43:58.317Z,43.80
2023-05-15T06:44:58.351Z,46.80
2023-05-15T06:45:58.319Z,43.90
2023-05-15T06:46:58.377Z,50.60
2023-05-15T06:48:01.474Z,54.60
2023-05-15T06:48:58.256Z,57.90
2023-05-15T06:49:58.259Z,52.60
2023-05-15T06:50:58.235Z,53.10
2023-05-15T06:51:58.228Z,53.80
2023-05-15T06:52:58.228Z,50.90
2023-05-15T06:53:58.227Z,52.40
2023-05-15T06:54:58.201Z,51.90
2023-05-15T06:55:58.181Z,48.00
2023-05-15T06:56:58.178Z,50.80
2023-05-15T06:57:58.158Z,55.40
2023-05-15T06:58:58.161Z,51.80
2023-05-15T06:59:58.137Z,57.70
2023-05-15T07:00:59.397Z,57.60
2023-05-15T07:01:58.147Z,61.40
2023-05-15T07:02:58.137Z,52.60
2023-05-15T07:03:58.103Z,54.60
2023-05-15T07:04:58.104Z,59.30
2023-05-15T07:05:58.064Z,56.10
2023-05-15T07:06:58.086Z,54.40
2023-05-15T07:07:58.074Z,53.70
2023-05-15T07:08:58.072Z,57.10
2023-05-15T07:09:58.020Z,56.90
2023-05-15T07:10:58.021Z,57.50
2023-05-15T07:11:58.003Z,57.30
2023-05-15T07:12:58.007Z,59.00
2023-05-15T07:13:58.005Z,59.30
2023-05-15T07:14:57.966Z,54.30
2023-05-15T07:15:57.957Z,59.90
2023-05-15T07:16:57.972Z,60.60
2023-05-15T07:17:58.060Z,56.40
2023-05-15T07:18:57.970Z,55.70
2023-05-15T07:19:57.920Z,57.80
2023-05-15T07:20:57.907Z,60.80
2023-05-15T07:21:57.903Z,63.50
2023-05-15T07:22:57.892Z,61.20
2023-05-15T07:23:57.880Z,61.30
2023-05-15T07:24:57.858Z,62.50
2023-05-15T07:25:57.845Z,61.10
2023-05-15T07:26:59.101Z,67.30
2023-05-15T07:27:57.843Z,65.70
2023-05-15T07:28:57.815Z,64.00
2023-05-15T07:29:57.809Z,64.20
2023-05-15T07:30:57.792Z,65.40
2023-05-15T07:31:57.971Z,64.10
2023-05-15T07:32:57.828Z,67.10
2023-05-15T07:33:57.764Z,62.70
2023-05-15T07:34:57.759Z,65.10
2023-05-15T07:35:57.747Z,55.90
2023-05-15T07:36:57.735Z,55.10
2023-05-15T07:37:57.730Z,51.10
2023-05-15T07:38:57.705Z,52.90
2023-05-15T07:39:57.730Z,50.00
2023-05-15T07:40:57.697Z,52.30
2023-05-15T07:41:57.674Z,56.10
2023-05-15T07:42:57.658Z,55.10
2023-05-15T07:43:57.645Z,53.90
2023-05-15T07:44:57.712Z,56.50
2023-05-15T07:45:57.658Z,59.50
2023-05-15T07:46:57.618Z,58.20
2023-05-15T07:47:57.666Z,58.60
2023-05-15T07:48:57.583Z,56.00
2023-05-15T07:49:57.594Z,57.10
2023-05-15T07:50:57.593Z,58.00
2023-05-15T07:51:57.568Z,57.30
2023-05-15T07:52:57.550Z,57.60
2023-05-15T07:53:57.540Z,56.40
2023-05-15T07:54:57.559Z,56.50
2023-05-15T07:55:57.529Z,57.00
2023-05-15T07:56:57.554Z,59.80
2023-05-15T07:57:57.488Z,56.00
2023-05-15T07:58:57.511Z,54.30
2023-05-15T07:59:57.481Z,53.80
2023-05-15T08:00:57.465Z,58.50
2023-05-15T08:01:57.510Z,57.20
2023-05-15T08:02:57.560Z,57.60
2023-05-15T08:03:57.505Z,58.60
2023-05-15T08:04:57.444Z,58.50
2023-05-15T08:05:57.402Z,59.00
2023-05-15T08:06:57.404Z,61.70
2023-05-15T08:07:57.378Z,60.10
2023-05-15T08:08:57.395Z,58.70
2023-05-15T08:09:57.357Z,57.80
2023-05-15T08:10:57.346Z,59.10
2023-05-15T08:11:57.364Z,61.50
2023-05-15T08:12:57.349Z,60.70
2023-05-15T08:13:57.403Z,59.10
2023-05-15T08:14:57.301Z,62.00
2023-05-15T08:15:57.329Z,62.60
2023-05-15T08:16:57.309Z,58.20
2023-05-15T08:17:57.355Z,60.70
2023-05-15T08:18:57.330Z,58.50
2023-05-15T08:19:57.297Z,57.00
2023-05-15T08:20:57.247Z,60.20
2023-05-15T08:21:57.238Z,64.90
2023-05-15T08:22:57.273Z,62.90
2023-05-15T08:23:57.775Z,57.30
2023-05-15T08:24:57.234Z,59.60
2023-05-15T08:25:57.196Z,59.30
2023-05-15T08:26:57.183Z,57.80
2023-05-15T08:27:57.166Z,59.30
2023-05-15T08:28:57.177Z,55.60
2023-05-15T08:29:57.160Z,60.40
2023-05-15T08:30:57.170Z,61.70
2023-05-15T08:31:57.150Z,56.90
2023-05-15T08:32:57.186Z,58.50
2023-05-15T08:33:57.092Z,57.90
2023-05-15T08:34:57.103Z,59.50
2023-05-15T08:35:57.075Z,58.60
2023-05-15T08:36:57.075Z,61.50
2023-05-15T08:37:57.052Z,64.00
2023-05-15T08:38:57.047Z,61.50
2023-05-15T08:39:57.039Z,59.60
2023-05-15T08:40:57.022Z,60.20
2023-05-15T08:41:57.020Z,61.80
2023-05-15T08:42:56.997Z,60.90
2023-05-15T08:43:56.984Z,54.20
2023-05-15T08:44:56.977Z,60.40
2023-05-15T08:45:56.977Z,59.80
2023-05-15T08:46:57.108Z,65.70
2023-05-15T08:47:57.136Z,67.40
2023-05-15T08:48:56.954Z,61.90
2023-05-15T08:49:56.946Z,66.10
2023-05-15T08:50:56.935Z,64.70
2023-05-15T08:51:56.901Z,61.70
2023-05-15T08:52:56.885Z,62.80
2023-05-15T08:53:56.866Z,60.70
2023-05-15T08:54:56.910Z,58.40
2023-05-15T08:55:56.860Z,63.00
2023-05-15T08:56:56.922Z,65.40
2023-05-15T08:57:56.848Z,61.10
2023-05-15T08:58:56.819Z,62.20
2023-05-15T08:59:56.807Z,57.70
2023-05-15T09:00:56.817Z,59.90
2023-05-15T09:01:57.730Z,62.30
2023-05-15T09:02:56.844Z,59.60
2023-05-15T09:03:56.897Z,61.20
2023-05-15T09:04:56.807Z,58.60
2023-05-15T09:05:56.763Z,59.40
2023-05-15T09:06:56.726Z,57.40
2023-05-15T09:07:56.739Z,59.80
2023-05-15T09:08:56.713Z,55.80
2023-05-15T09:09:56.749Z,57.40
2023-05-15T09:10:56.698Z,58.80
2023-05-15T09:11:56.694Z,59.30
2023-05-15T09:12:56.672Z,56.10
2023-05-15T09:13:56.665Z,57.20
2023-05-15T09:14:56.672Z,58.10
2023-05-15T09:15:56.625Z,57.20
2023-05-15T09:16:56.683Z,57.40
2023-05-15T09:17:56.695Z,58.00
2023-05-15T09:18:56.678Z,56.20
2023-05-15T09:19:56.600Z,55.50
2023-05-15T09:20:56.739Z,58.40
2023-05-15T09:21:56.564Z,54.90
2023-05-15T09:22:56.569Z,52.20
2023-05-15T09:23:56.622Z,49.80
2023-05-15T09:24:56.637Z,54.80
2023-05-15T09:25:56.603Z,54.90
2023-05-15T09:26:56.530Z,56.40
2023-05-15T09:27:56.562Z,54.40
2023-05-15T09:28:56.569Z,55.00
2023-05-15T09:29:56.511Z,49.40
2023-05-15T09:30:56.473Z,52.40
2023-05-15T09:31:56.510Z,54.60
2023-05-15T09:32:56.693Z,56.70
2023-05-15T09:33:56.467Z,47.80
2023-05-15T09:34:56.430Z,48.00
2023-05-15T09:35:56.411Z,47.20
2023-05-15T09:36:56.415Z,47.70
2023-05-15T09:37:56.405Z,46.00
2023-05-15T09:38:56.392Z,48.10
2023-05-15T09:39:56.368Z,47.50
2023-05-15T09:40:56.382Z,47.90
2023-05-15T09:41:56.369Z,44.80
2023-05-15T09:42:56.361Z,52.10
2023-05-15T09:43:56.343Z,51.50
2023-05-15T09:44:56.321Z,49.00
2023-05-15T09:45:56.426Z,46.80
2023-05-15T09:46:56.369Z,50.10
2023-05-15T09:47:56.435Z,42.30
2023-05-15T09:48:56.288Z,44.90
2023-05-15T09:49:56.264Z,52.10
2023-05-15T09:50:56.299Z,47.50
2023-05-15T09:51:56.284Z,49.20
2023-05-15T09:52:56.282Z,48.80
2023-05-15T09:53:56.226Z,45.60
2023-05-15T09:54:56.216Z,47.80
2023-05-15T09:55:56.214Z,45.40
2023-05-15T09:56:56.459Z,45.80
2023-05-15T09:57:56.174Z,46.70
2023-05-15T09:58:56.176Z,45.50
2023-05-15T09:59:56.156Z,47.30
2023-05-15T10:00:56.220Z,41.50
2023-05-15T10:01:56.161Z,48.10
2023-05-15T10:02:56.141Z,45.60
2023-05-15T10:03:56.111Z,42.80
2023-05-15T10:04:56.163Z,43.40
2023-05-15T10:05:56.132Z,46.00
2023-05-15T10:06:56.087Z,44.50
2023-05-15T10:07:56.077Z,44.70
2023-05-15T10:08:56.256Z,42.20
2023-05-15T10:09:56.065Z,44.60
2023-05-15T10:10:56.045Z,42.00
2023-05-15T10:11:56.039Z,46.10
2023-05-15T10:12:56.018Z,48.60
2023-05-15T10:13:56.013Z,46.40
2023-05-15T10:14:56.034Z,49.60
2023-05-15T10:15:56.134Z,44.30
2023-05-15T10:16:55.985Z,43.50
2023-05-15T10:17:56.024Z,44.90
2023-05-15T10:18:56.089Z,46.90
2023-05-15T10:19:58.737Z,49.00
2023-05-15T10:20:55.938Z,44.40
2023-05-15T10:21:55.920Z,45.80
2023-05-15T10:22:55.935Z,45.10
2023-05-15T10:23:55.931Z,43.20
2023-05-15T10:24:55.906Z,47.50
2023-05-15T10:25:55.885Z,47.80
2023-05-15T10:26:55.899Z,44.60
2023-05-15T10:27:55.909Z,42.70
2023-05-15T10:28:55.906Z,43.90
2023-05-15T10:29:55.877Z,44.90
2023-05-15T10:30:55.872Z,41.70
2023-05-15T10:31:55.896Z,38.90
2023-05-15T10:32:55.827Z,38.10
2023-05-15T10:33:55.815Z,39.90
2023-05-15T10:34:55.796Z,35.40
2023-05-15T10:35:55.786Z,41.10
2023-05-15T10:36:55.766Z,39.10
2023-05-15T10:37:55.781Z,37.70
2023-05-15T10:38:55.863Z,36.30
2023-05-15T10:39:55.746Z,34.50
2023-05-15T10:41:05.594Z,38.00
2023-05-15T10:41:56.809Z,36.90
2023-05-15T10:42:55.723Z,36.40
2023-05-15T10:43:55.707Z,38.00
2023-05-15T10:44:55.698Z,39.00
2023-05-15T10:45:55.693Z,38.80
2023-05-15T10:46:55.721Z,36.00
2023-05-15T10:47:55.707Z,36.10
2023-05-15T10:48:55.652Z,34.10
2023-05-15T10:49:55.627Z,34.70
2023-05-15T10:50:55.639Z,32.60
2023-05-15T10:51:55.626Z,28.10
2023-05-15T10:52:55.651Z,29.70
2023-05-15T10:53:55.600Z,26.80
2023-05-15T10:54:55.587Z,28.40
2023-05-15T10:55:55.630Z,27.70
2023-05-15T10:56:55.589Z,29.00
2023-05-15T10:57:55.582Z,27.40
2023-05-15T10:58:55.554Z,35.20
2023-05-15T10:59:55.548Z,28.20
2023-05-15T11:00:55.577Z,26.40
2023-05-15T11:01:55.521Z,26.60
2023-05-15T11:02:55.663Z,25.20
2023-05-15T11:03:55.517Z,27.70
2023-05-15T11:04:55.496Z,24.70
2023-05-15T11:05:55.483Z,24.60
2023-05-15T11:06:55.479Z,27.50
2023-05-15T11:07:55.450Z,25.50
2023-05-15T11:08:55.447Z,21.90
2023-05-15T11:09:55.434Z,25.30
2023-05-15T11:10:55.477Z,24.20
2023-05-15T11:11:55.699Z,25.10
2023-05-15T11:12:55.406Z,24.10
2023-05-15T11:13:55.400Z,23.30
2023-05-15T11:14:55.395Z,19.80
2023-05-15T11:15:55.383Z,21.10
2023-05-15T11:16:55.599Z,23.90
2023-05-15T11:17:55.386Z,24.60
2023-05-15T11:18:55.370Z,23.50
2023-05-15T11:19:55.339Z,26.30
2023-05-15T11:20:55.332Z,25.40
2023-05-15T11:21:55.321Z,24.90
2023-05-15T11:22:55.318Z,22.70
2023-05-15T11:23:55.289Z,23.60
2023-05-15T11:24:55.307Z,22.50
2023-05-15T11:25:55.286Z,20.40
2023-05-15T11:26:56.103Z,20.00
2023-05-15T11:27:55.252Z,21.00
2023-05-15T11:28:55.261Z,20.80
2023-05-15T11:29:55.246Z,24.60
2023-05-15T11:30:55.268Z,21.40
2023-05-15T11:31:55.317Z,23.60
2023-05-15T11:32:55.276Z,20.10
2023-05-15T11:33:55.180Z,21.50
2023-05-15T11:34:55.193Z,19.20
2023-05-15T11:35:55.171Z,19.30
2023-05-15T11:36:55.192Z,20.10
2023-05-15T11:37:55.185Z,18.10
2023-05-15T11:38:55.152Z,17.20
2023-05-15T11:39:55.134Z,15.10
2023-05-15T11:40:55.155Z,18.70
2023-05-15T11:41:55.117Z,16.10
2023-05-15T11:42:55.158Z,16.40
2023-05-15T11:43:55.090Z,16.70
2023-05-15T11:44:55.164Z,17.90
2023-05-15T11:45:55.069Z,19.30
2023-05-15T11:46:55.150Z,18.90
2023-05-15T11:47:55.093Z,25.00
2023-05-15T11:48:55.052Z,17.90
2023-05-15T11:49:55.036Z,16.90
2023-05-15T11:50:55.026Z,18.20
2023-05-15T11:51:55.009Z,23.20
2023-05-15T11:52:55.013Z,19.90
2023-05-15T11:53:55.022Z,19.80
2023-05-15T11:54:54.984Z,16.80
2023-05-15T11:55:54.964Z,20.00
2023-05-15T11:56:54.973Z,18.80
2023-05-15T11:57:54.953Z,16.90
2023-05-15T11:58:54.967Z,17.80
2023-05-15T11:59:54.930Z,16.80
2023-05-15T12:00:54.929Z,18.70
2023-05-15T12:01:54.918Z,17.80
2023-05-15T12:02:54.978Z,22.50
2023-05-15T12:03:55.356Z,15.00
2023-05-15T12:04:54.925Z,12.00
2023-05-15T12:06:54.865Z,16.60
2023-05-15T12:07:54.939Z,14.80
2023-05-15T12:08:54.848Z,13.10
2023-05-15T12:09:54.935Z,15.10
2023-05-15T12:10:54.885Z,12.00
2023-05-15T12:11:54.827Z,13.70
2023-05-15T12:12:54.808Z,13.80
2023-05-15T12:13:55.011Z,13.70
2023-05-15T12:14:54.789Z,14.30
2023-05-15T12:15:54.789Z,12.20
2023-05-15T12:16:54.808Z,11.50
2023-05-15T12:17:54.806Z,11.20
2023-05-15T12:18:54.812Z,12.30
2023-05-15T12:19:54.745Z,14.90
2023-05-15T12:20:54.755Z,12.00
2023-05-15T12:21:54.741Z,12.20
2023-05-15T12:22:54.724Z,16.60
2023-05-15T12:24:54.690Z,14.00
2023-05-15T12:25:54.697Z,14.00
2023-05-15T12:26:57.205Z,16.30
2023-05-15T12:27:54.651Z,15.40
2023-05-15T12:28:54.673Z,12.60
2023-05-15T12:29:54.651Z,13.60
2023-05-15T12:30:54.649Z,10.60
2023-05-15T12:31:54.731Z,13.70
2023-05-15T12:32:54.638Z,12.50
2023-05-15T12:33:54.648Z,11.10
2023-05-15T12:34:54.587Z,13.20
2023-05-15T12:35:54.965Z,13.90
2023-05-15T12:36:54.553Z,15.20
2023-05-15T12:37:54.557Z,11.80
2023-05-15T12:38:54.560Z,13.70
2023-05-15T12:39:54.543Z,15.20
2023-05-15T12:40:54.536Z,18.80
2023-05-15T12:41:54.533Z,17.10
2023-05-15T12:42:54.497Z,17.10
2023-05-15T12:43:54.509Z,13.50
2023-05-15T12:44:54.520Z,13.10
2023-05-15T12:45:54.642Z,13.60
2023-05-15T12:46:54.466Z,11.20
2023-05-15T12:47:54.466Z,10.10
2023-05-15T12:48:54.495Z,11.00
2023-05-15T12:49:54.444Z,16.50
2023-05-15T12:50:54.420Z,13.70
2023-05-15T12:51:54.413Z,12.00
2023-05-15T12:52:54.430Z,10.80
2023-05-15T12:53:54.436Z,15.60
2023-05-15T12:54:54.376Z,11.20
2023-05-15T12:55:54.372Z,13.50